createdAt,value
2023-03-08T00:00:02.759Z,92.54
2023-03-08T00:02:29.145Z,92.83
2023-03-08T00:04:55.740Z,92.87
2023-03-08T00:07:22.470Z,92.80
2023-03-08T00:09:48.847Z,93.62
2023-03-08T00:12:15.384Z,93.37
2023-03-08T00:14:41.799Z,93.67
2023-03-08T00:17:08.188Z,94.30
2023-03-08T00:19:34.601Z,94.73
2023-03-08T00:22:01.022Z,95.12
2023-03-08T00:24:27.452Z,95.21
2023-03-08T00:26:53.795Z,95.12
2023-03-08T00:29:20.323Z,95.33
2023-03-08T00:31:46.917Z,95.80
2023-03-08T00:34:13.344Z,96.07
2023-03-08T00:36:39.701Z,95.23
2023-03-08T00:39:06.059Z,95.14
2023-03-08T00:41:32.462Z,95.01
2023-03-08T00:43:58.940Z,95.38
2023-03-08T00:46:26.035Z,95.71
2023-03-08T00:48:52.661Z,95.89
2023-03-08T00:51:20.607Z,96.34
2023-03-08T00:53:47.233Z,96.94
2023-03-08T00:56:13.691Z,96.83
2023-03-08T00:58:40.718Z,97.00
2023-03-08T01:01:07.970Z,96.82
2023-03-08T01:03:34.425Z,97.05
2023-03-08T01:06:05.360Z,97.00
2023-03-08T01:08:31.766Z,96.97
2023-03-08T01:10:59.337Z,97.24
2023-03-08T01:13:30.315Z,97.46
2023-03-08T01:15:56.759Z,97.06
2023-03-08T01:18:23.226Z,97.28
2023-03-08T01:21:02.933Z,97.49
2023-03-08T01:23:29.821Z,97.46
2023-03-08T01:26:00.479Z,97.32
2023-03-08T01:28:27.050Z,97.73
2023-03-08T01:30:53.520Z,98.02
2023-03-08T01:33:21.042Z,97.81
2023-03-08T01:35:47.878Z,97.62
2023-03-08T01:38:14.288Z,97.33
2023-03-08T01:40:40.662Z,96.90
2023-03-08T01:43:23.692Z,97.20
2023-03-08T01:46:08.731Z,97.42
2023-03-08T01:48:40.620Z,97.17
2023-03-08T01:51:08.947Z,96.80
2023-03-08T01:53:36.386Z,96.36
2023-03-08T01:56:02.834Z,95.74
2023-03-08T01:58:29.351Z,96.04
2023-03-08T02:00:55.817Z,94.95
2023-03-08T02:03:22.286Z,94.17
2023-03-08T02:05:49.078Z,93.89
2023-03-08T02:08:15.480Z,94.34
2023-03-08T02:10:42.106Z,94.63
2023-03-08T02:13:09.917Z,94.33
2023-03-08T02:15:36.494Z,94.01
2023-03-08T02:18:03.232Z,93.84
2023-03-08T02:20:31.476Z,93.95
2023-03-08T02:23:11.595Z,94.86
2023-03-08T02:25:38.355Z,95.04
2023-03-08T02:28:05.343Z,95.27
2023-03-08T02:30:33.421Z,95.54
2023-03-08T02:32:59.883Z,95.30
2023-03-08T02:35:26.769Z,94.98
2023-03-08T02:37:53.319Z,94.83
2023-03-08T02:40:20.045Z,94.83
2023-03-08T02:42:46.512Z,94.48
2023-03-08T02:45:12.929Z,94.62
2023-03-08T02:47:39.431Z,94.91
2023-03-08T02:50:06.088Z,95.19
2023-03-08T02:52:32.522Z,95.22
2023-03-08T02:54:58.902Z,95.08
2023-03-08T02:57:25.330Z,95.46
2023-03-08T02:59:51.720Z,95.49
2023-03-08T03:02:18.191Z,95.63
2023-03-08T03:04:44.630Z,96.02
2023-03-08T03:07:11.020Z,96.60
2023-03-08T03:09:37.508Z,96.80
2023-03-08T03:12:04.054Z,96.90
2023-03-08T03:14:32.311Z,96.82
2023-03-08T03:16:58.719Z,96.85
2023-03-08T03:19:25.339Z,96.85
2023-03-08T03:21:51.771Z,96.82
2023-03-08T03:24:18.227Z,97.17
2023-03-08T03:26:44.677Z,96.95
2023-03-08T03:29:11.064Z,96.66
2023-03-08T03:31:37.476Z,96.72
2023-03-08T03:34:04.138Z,96.95
2023-03-08T03:36:30.565Z,96.46
2023-03-08T03:38:58.251Z,96.22
2023-03-08T03:41:24.668Z,95.87
2023-03-08T03:43:51.342Z,95.88
2023-03-08T03:46:19.071Z,96.06
2023-03-08T03:48:45.798Z,95.97
2023-03-08T03:51:14.042Z,95.36
2023-03-08T03:53:40.930Z,95.63
2023-03-08T03:56:10.113Z,95.74
2023-03-08T03:58:36.478Z,95.79
2023-03-08T04:01:14.353Z,95.62
2023-03-08T04:03:40.967Z,96.11
2023-03-08T04:06:17.709Z,96.33
2023-03-08T04:08:45.549Z,96.18
2023-03-08T04:11:14.090Z,96.07
2023-03-08T04:13:40.444Z,96.57
2023-03-08T04:16:09.963Z,96.72
2023-03-08T04:18:36.934Z,96.50
2023-03-08T04:21:03.319Z,96.36
2023-03-08T04:23:29.676Z,96.74
2023-03-08T04:25:56.019Z,96.85
2023-03-08T04:28:22.356Z,97.68
2023-03-08T04:30:48.679Z,97.84
2023-03-08T04:33:15.016Z,97.85
2023-03-08T04:35:41.391Z,97.71
2023-03-08T04:38:07.738Z,97.57
2023-03-08T04:40:54.035Z,97.47
2023-03-08T04:43:20.391Z,97.23
2023-03-08T04:45:46.718Z,97.06
2023-03-08T04:48:13.133Z,97.54
2023-03-08T04:50:39.623Z,98.22
2023-03-08T04:53:08.973Z,98.44
2023-03-08T04:55:38.415Z,98.26
2023-03-08T04:58:05.106Z,97.89
2023-03-08T05:00:31.434Z,97.95
2023-03-08T05:02:57.769Z,97.90
2023-03-08T05:05:24.100Z,97.90
2023-03-08T05:07:50.463Z,97.97
2023-03-08T05:10:16.827Z,98.19
2023-03-08T05:12:43.199Z,98.38
2023-03-08T05:15:12.174Z,97.95
2023-03-08T05:17:38.635Z,97.99
2023-03-08T05:20:05.181Z,98.30
2023-03-08T05:22:31.510Z,99.08
2023-03-08T05:24:57.845Z,98.87
2023-03-08T05:27:24.203Z,99.25
2023-03-08T05:29:51.470Z,99.15
2023-03-08T05:32:17.821Z,98.76
2023-03-08T05:34:44.245Z,99.55
2023-03-08T05:37:10.687Z,99.33
2023-03-08T05:39:37.015Z,99.37
2023-03-08T05:42:03.448Z,100.00
2023-03-08T05:44:29.781Z,100.00
2023-03-08T05:46:56.132Z,100.00
2023-03-08T05:49:22.462Z,100.00
2023-03-08T05:51:48.857Z,100.00
2023-03-08T05:54:15.199Z,100.00
2023-03-08T05:56:41.561Z,100.00
2023-03-08T05:59:07.919Z,99.83
2023-03-08T06:01:34.232Z,99.75
2023-03-08T06:04:00.596Z,99.28
2023-03-08T06:06:27.336Z,98.90
2023-03-08T06:08:56.118Z,98.76
2023-03-08T06:11:25.432Z,98.71
2023-03-08T06:13:54.842Z,98.39
2023-03-08T06:16:21.321Z,99.06
2023-03-08T06:18:47.784Z,98.76
2023-03-08T06:21:15.203Z,98.46
2023-03-08T06:23:43.055Z,98.33
2023-03-08T06:26:09.960Z,98.79
2023-03-08T06:28:36.980Z,98.40
2023-03-08T06:31:03.785Z,98.17
2023-03-08T06:33:31.395Z,97.83
2023-03-08T06:36:01.872Z,97.39
2023-03-08T06:38:30.167Z,97.32
2023-03-08T06:40:57.610Z,97.08
2023-03-08T06:43:24.035Z,97.52
2023-03-08T06:45:50.685Z,97.65
2023-03-08T06:48:17.054Z,97.71
2023-03-08T06:50:43.573Z,97.37
2023-03-08T06:53:10.176Z,97.00
2023-03-08T06:55:36.807Z,96.72
2023-03-08T06:58:03.992Z,96.47
2023-03-08T07:00:30.806Z,96.77
2023-03-08T07:02:57.467Z,96.29
2023-03-08T07:05:23.776Z,96.24
2023-03-08T07:07:50.377Z,96.60
2023-03-08T07:10:19.545Z,97.06
2023-03-08T07:12:48.499Z,97.34
2023-03-08T07:15:19.029Z,97.50
2023-03-08T07:17:49.128Z,97.35
2023-03-08T07:20:16.601Z,97.33
2023-03-08T07:22:44.665Z,96.83
2023-03-08T07:25:12.007Z,96.36
2023-03-08T07:27:38.512Z,96.19
2023-03-08T07:30:05.090Z,94.14
2023-03-08T07:32:31.564Z,92.95
2023-03-08T07:34:57.996Z,93.00
2023-03-08T07:37:24.452Z,92.69
2023-03-08T07:39:51.094Z,92.59
2023-03-08T07:42:17.443Z,92.28
2023-03-08T07:44:43.887Z,91.99
2023-03-08T07:47:10.223Z,91.70
2023-03-08T07:49:36.628Z,91.98
2023-03-08T07:52:03.141Z,91.50
2023-03-08T07:54:29.733Z,91.56
2023-03-08T07:56:58.051Z,91.56
2023-03-08T07:59:24.451Z,91.48
2023-03-08T08:01:50.806Z,91.49
2023-03-08T08:04:17.190Z,91.34
2023-03-08T08:06:43.525Z,91.13
2023-03-08T08:09:12.264Z,90.68
2023-03-08T08:11:38.970Z,90.43
2023-03-08T08:14:05.392Z,89.99
2023-03-08T08:16:31.989Z,89.75
2023-03-08T08:18:58.358Z,89.35
2023-03-08T08:21:26.478Z,88.93
2023-03-08T08:23:57.668Z,88.73
2023-03-08T08:26:24.006Z,89.09
2023-03-08T08:28:52.253Z,88.84
2023-03-08T08:31:20.071Z,88.51
2023-03-08T08:33:46.697Z,88.06
2023-03-08T08:36:14.390Z,87.78
2023-03-08T08:38:40.754Z,87.46
2023-03-08T08:41:08.013Z,86.93
2023-03-08T08:43:35.710Z,86.68
2023-03-08T08:46:03.567Z,86.33
2023-03-08T08:48:32.890Z,86.17
2023-03-08T08:50:59.952Z,86.19
2023-03-08T08:53:26.338Z,86.05
2023-03-08T08:55:52.677Z,86.00
2023-03-08T08:58:19.014Z,86.19
2023-03-08T09:00:45.802Z,86.24
2023-03-08T09:03:12.363Z,86.26
2023-03-08T09:05:40.057Z,85.93
2023-03-08T09:08:07.171Z,85.82
2023-03-08T09:10:35.221Z,85.78
2023-03-08T09:13:01.570Z,85.37
2023-03-08T09:15:28.105Z,85.15
2023-03-08T09:17:54.814Z,85.04
2023-03-08T09:20:23.377Z,84.83
2023-03-08T09:22:50.132Z,84.83
2023-03-08T09:25:17.396Z,84.90
2023-03-08T09:27:43.755Z,84.82
2023-03-08T09:30:11.110Z,84.69
2023-03-08T09:32:37.556Z,84.21
2023-03-08T09:35:05.221Z,84.09
2023-03-08T09:37:31.545Z,83.97
2023-03-08T09:39:58.229Z,83.59
2023-03-08T09:42:27.620Z,83.51
2023-03-08T09:45:01.376Z,82.99
2023-03-08T09:47:39.586Z,82.93
2023-03-08T09:50:11.901Z,83.10
2023-03-08T09:52:43.363Z,83.01
2023-03-08T09:55:17.791Z,82.91
2023-03-08T09:57:47.655Z,83.10
2023-03-08T10:00:26.101Z,82.85
2023-03-08T10:03:11.154Z,82.58
2023-03-08T10:05:45.454Z,82.43
2023-03-08T10:08:12.862Z,81.50
2023-03-08T10:10:41.846Z,81.81
2023-03-08T10:13:08.217Z,81.76
2023-03-08T10:15:40.775Z,82.25
2023-03-08T10:18:16.382Z,82.67
2023-03-08T10:20:43.403Z,82.59
2023-03-08T10:23:17.693Z,82.71
2023-03-08T10:25:44.758Z,82.66
2023-03-08T10:28:15.991Z,82.91
2023-03-08T10:30:53.887Z,82.96
2023-03-08T10:33:22.181Z,83.24
2023-03-08T10:36:03.960Z,83.32
2023-03-08T10:38:31.508Z,83.55
2023-03-08T10:41:07.127Z,83.80
2023-03-08T10:43:36.287Z,83.83
2023-03-08T10:46:05.274Z,84.17
2023-03-08T10:48:32.027Z,83.85
2023-03-08T10:51:03.826Z,83.96
2023-03-08T10:53:30.967Z,84.48
2023-03-08T10:55:58.879Z,84.70
2023-03-08T10:58:31.368Z,84.83
2023-03-08T11:00:59.253Z,84.96
2023-03-08T11:03:26.226Z,85.17
2023-03-08T11:05:52.756Z,85.29
2023-03-08T11:08:21.002Z,85.43
2023-03-08T11:10:47.474Z,85.52
2023-03-08T11:13:19.994Z,85.28
2023-03-08T11:15:50.804Z,84.83
2023-03-08T11:18:35.943Z,85.25
2023-03-08T11:21:26.868Z,85.67
2023-03-08T11:24:01.084Z,85.90
2023-03-08T11:26:38.654Z,85.54
2023-03-08T11:29:04.982Z,84.96
2023-03-08T11:31:55.246Z,85.40
2023-03-08T11:34:43.227Z,85.59
2023-03-08T11:37:09.875Z,85.26
2023-03-08T11:39:47.106Z,84.78
2023-03-08T11:42:16.660Z,84.78
2023-03-08T11:45:18.285Z,84.91
2023-03-08T11:47:51.654Z,84.97
2023-03-08T11:50:28.708Z,85.43
2023-03-08T11:53:13.828Z,85.45
2023-03-08T11:55:55.587Z,85.78
2023-03-08T11:58:31.647Z,85.66
2023-03-08T12:01:02.404Z,86.08
2023-03-08T12:03:31.761Z,86.55
2023-03-08T12:06:04.651Z,86.83
2023-03-08T12:08:41.809Z,86.49
2023-03-08T12:11:11.323Z,86.53
2023-03-08T12:13:56.469Z,86.66
2023-03-08T12:16:30.803Z,86.94
2023-03-08T12:19:00.495Z,86.88
2023-03-08T12:21:26.832Z,87.21
2023-03-08T12:23:59.413Z,87.01
2023-03-08T12:26:32.863Z,86.89
2023-03-08T12:29:03.282Z,86.52
2023-03-08T12:31:41.391Z,86.82
2023-03-08T12:34:15.632Z,87.11
2023-03-08T12:36:43.754Z,87.60
2023-03-08T12:39:26.566Z,87.85
2023-03-08T12:42:13.892Z,88.39
2023-03-08T12:44:40.323Z,88.53
2023-03-08T12:47:13.283Z,88.85
2023-03-08T12:49:41.466Z,89.21
2023-03-08T12:52:23.827Z,89.58
2023-03-08T12:54:59.231Z,89.53
2023-03-08T12:57:28.597Z,89.87
2023-03-08T13:00:26.209Z,89.90
2023-03-08T13:03:19.654Z,90.29
2023-03-08T13:05:49.652Z,90.36
2023-03-08T13:08:16.402Z,90.65
2023-03-08T13:10:49.152Z,91.40
2023-03-08T13:13:39.152Z,92.01
2023-03-08T13:16:15.165Z,92.00
2023-03-08T13:18:42.570Z,92.40
2023-03-08T13:21:46.088Z,92.92
2023-03-08T13:24:36.706Z,93.22
2023-03-08T13:27:21.738Z,93.61
2023-03-08T13:29:48.529Z,94.48
2023-03-08T13:32:19.511Z,95.49
2023-03-08T13:34:50.957Z,95.90
2023-03-08T13:37:21.509Z,95.88
2023-03-08T13:39:55.720Z,96.06
2023-03-08T13:42:24.946Z,96.45
2023-03-08T13:44:52.443Z,96.30
2023-03-08T13:47:19.411Z,96.53
2023-03-08T13:49:46.130Z,96.96
2023-03-08T13:52:17.072Z,96.78
2023-03-08T13:54:46.058Z,96.33
2023-03-08T13:57:31.966Z,96.90
2023-03-08T14:00:00.374Z,96.83
2023-03-08T14:02:28.134Z,97.88
2023-03-08T14:04:54.886Z,98.44
2023-03-08T14:07:25.969Z,98.34
2023-03-08T14:09:54.883Z,98.30
2023-03-08T14:12:23.805Z,98.30
2023-03-08T14:14:56.114Z,98.40
2023-03-08T14:17:23.947Z,98.59
2023-03-08T14:19:57.907Z,98.92
2023-03-08T14:22:38.216Z,99.11
2023-03-08T14:25:06.175Z,99.29
2023-03-08T14:27:36.799Z,99.49
2023-03-08T14:30:17.808Z,99.81
2023-03-08T14:33:03.136Z,100.00
2023-03-08T14:35:35.238Z,99.73
2023-03-08T14:38:01.953Z,99.82
2023-03-08T14:40:30.216Z,99.99
2023-03-08T14:42:58.261Z,100.00
2023-03-08T14:45:27.028Z,100.00
2023-03-08T14:48:00.301Z,100.00
2023-03-08T14:50:33.757Z,100.00
2023-03-08T14:53:02.143Z,100.00
2023-03-08T14:55:30.402Z,100.00
2023-03-08T14:57:58.657Z,100.00
2023-03-08T15:00:27.607Z,100.00
2023-03-08T15:02:53.939Z,100.00
2023-03-08T15:05:28.859Z,100.00
2023-03-08T15:07:56.727Z,100.00
2023-03-08T15:10:31.097Z,100.00
2023-03-08T15:12:57.714Z,100.00
2023-03-08T15:15:24.218Z,100.00
2023-03-08T15:17:53.481Z,100.00
2023-03-08T15:20:20.502Z,100.00
2023-03-08T15:22:48.577Z,100.00
2023-03-08T15:25:16.632Z,100.00
2023-03-08T15:27:43.042Z,100.00
2023-03-08T15:30:13.388Z,100.00
2023-03-08T15:32:39.798Z,100.00
2023-03-08T15:35:06.326Z,99.03
2023-03-08T15:37:32.685Z,99.15
2023-03-08T15:39:59.155Z,99.41
2023-03-08T15:42:25.734Z,99.58
2023-03-08T15:44:52.051Z,99.08
2023-03-08T15:47:18.419Z,98.81
2023-03-08T15:49:44.849Z,99.00
2023-03-08T15:52:12.552Z,99.43
2023-03-08T15:54:40.426Z,99.85
2023-03-08T15:57:06.963Z,100.00
2023-03-08T15:59:33.344Z,100.00
2023-03-08T16:01:59.755Z,100.00
2023-03-08T16:04:26.147Z,100.00
2023-03-08T16:06:52.540Z,100.00
2023-03-08T16:09:18.920Z,100.00
2023-03-08T16:11:47.867Z,100.00
2023-03-08T16:14:17.830Z,100.00
2023-03-08T16:16:46.014Z,100.00
2023-03-08T16:19:13.223Z,100.00
2023-03-08T16:21:39.631Z,100.00
2023-03-08T16:24:06.121Z,100.00
2023-03-08T16:26:32.521Z,100.00
2023-03-08T16:28:58.910Z,100.00
2023-03-08T16:31:25.341Z,100.00
2023-03-08T16:33:51.995Z,100.00
2023-03-08T16:36:19.290Z,100.00
2023-03-08T16:38:45.876Z,100.00
2023-03-08T16:41:13.979Z,100.00
2023-03-08T16:43:48.379Z,100.00
2023-03-08T16:46:22.270Z,100.00
2023-03-08T16:48:49.934Z,100.00
2023-03-08T16:51:20.286Z,100.00
2023-03-08T16:53:47.498Z,100.00
2023-03-08T16:56:18.170Z,100.00
2023-03-08T16:58:44.611Z,100.00
2023-03-08T17:01:14.679Z,100.00
2023-03-08T17:03:41.149Z,100.00
2023-03-08T17:06:08.519Z,100.00
2023-03-08T17:08:34.936Z,100.00
2023-03-08T17:11:03.645Z,100.00
2023-03-08T17:13:30.404Z,100.00
2023-03-08T17:15:56.947Z,100.00
2023-03-08T17:18:26.210Z,100.00
2023-03-08T17:20:52.959Z,100.00
2023-03-08T17:23:19.894Z,100.00
2023-03-08T17:25:46.664Z,100.00
2023-03-08T17:28:13.153Z,100.00
2023-03-08T17:30:41.314Z,100.00
2023-03-08T17:33:08.664Z,100.00
2023-03-08T17:35:38.369Z,100.00
2023-03-08T17:38:04.860Z,100.00
2023-03-08T17:40:31.275Z,100.00
2023-03-08T17:43:00.139Z,100.00
2023-03-08T17:45:26.650Z,100.00
2023-03-08T17:47:53.138Z,100.00
2023-03-08T17:50:19.539Z,100.00
2023-03-08T17:52:45.973Z,100.00
2023-03-08T17:55:12.472Z,100.00
2023-03-08T17:57:39.069Z,100.00
2023-03-08T18:00:06.183Z,100.00
2023-03-08T18:02:33.149Z,100.00
2023-03-08T18:04:59.692Z,100.00
2023-03-08T18:07:27.811Z,100.00
2023-03-08T18:09:54.261Z,100.00
2023-03-08T18:12:20.673Z,100.00
2023-03-08T18:14:50.486Z,100.00
2023-03-08T18:17:16.938Z,100.00
2023-03-08T18:19:43.501Z,100.00
2023-03-08T18:22:09.998Z,100.00
2023-03-08T18:24:36.491Z,100.00
2023-03-08T18:27:05.456Z,100.00
2023-03-08T18:29:35.285Z,100.00
2023-03-08T18:32:01.975Z,100.00
2023-03-08T18:34:28.470Z,100.00
2023-03-08T18:36:56.143Z,100.00
2023-03-08T18:39:22.526Z,100.00
2023-03-08T18:41:49.334Z,100.00
2023-03-08T18:44:15.858Z,100.00
2023-03-08T18:46:42.365Z,100.00
2023-03-08T18:49:11.594Z,100.00
2023-03-08T18:51:39.593Z,100.00
2023-03-08T18:54:06.510Z,100.00
2023-03-08T18:56:32.902Z,100.00
2023-03-08T18:59:00.408Z,100.00
2023-03-08T19:01:28.597Z,100.00
2023-03-08T19:03:55.025Z,100.00
2023-03-08T19:06:21.480Z,100.00
2023-03-08T19:08:47.996Z,100.00
2023-03-08T19:11:15.845Z,100.00
2023-03-08T19:13:42.681Z,100.00
2023-03-08T19:16:19.606Z,100.00
2023-03-08T19:18:46.464Z,100.00
2023-03-08T19:21:16.920Z,100.00
2023-03-08T19:23:43.337Z,100.00
2023-03-08T19:26:32.280Z,100.00
2023-03-08T19:28:59.542Z,100.00
2023-03-08T19:31:26.140Z,100.00
2023-03-08T19:33:53.019Z,100.00
2023-03-08T19:36:19.542Z,100.00
2023-03-08T19:38:46.040Z,100.00
2023-03-08T19:41:13.452Z,100.00
2023-03-08T19:43:40.081Z,100.00
2023-03-08T19:46:07.511Z,100.00
2023-03-08T19:48:34.045Z,100.00
2023-03-08T19:51:00.412Z,100.00
2023-03-08T19:53:27.076Z,100.00
2023-03-08T19:55:54.211Z,100.00
2023-03-08T19:58:21.770Z,100.00
2023-03-08T20:00:48.358Z,100.00
2023-03-08T20:03:15.844Z,100.00
2023-03-08T20:05:43.972Z,100.00
2023-03-08T20:08:10.886Z,100.00
2023-03-08T20:10:37.296Z,100.00
2023-03-08T20:13:03.987Z,100.00
2023-03-08T20:15:30.716Z,100.00
2023-03-08T20:17:57.076Z,100.00
2023-03-08T20:20:23.548Z,100.00
2023-03-08T20:22:49.945Z,100.00
2023-03-08T20:25:18.087Z,100.00
2023-03-08T20:27:44.480Z,100.00
2023-03-08T20:30:11.833Z,100.00
2023-03-08T20:32:38.276Z,100.00
2023-03-08T20:35:05.421Z,100.00
2023-03-08T20:37:31.834Z,100.00
2023-03-08T20:39:59.163Z,100.00
2023-03-08T20:42:25.991Z,100.00
2023-03-08T20:44:52.473Z,100.00
2023-03-08T20:47:18.839Z,100.00
2023-03-08T20:49:45.250Z,100.00
2023-03-08T20:52:11.630Z,100.00
2023-03-08T20:54:38.066Z,100.00
2023-03-08T20:57:05.630Z,100.00
2023-03-08T20:59:32.188Z,100.00
2023-03-08T21:01:58.884Z,100.00
2023-03-08T21:04:25.368Z,100.00
2023-03-08T21:06:51.933Z,100.00
2023-03-08T21:09:18.554Z,100.00
2023-03-08T21:11:45.416Z,100.00
2023-03-08T21:14:11.868Z,100.00
2023-03-08T21:16:38.448Z,100.00
2023-03-08T21:19:05.440Z,100.00
2023-03-08T21:21:33.506Z,100.00
2023-03-08T21:24:01.269Z,100.00
2023-03-08T21:26:28.462Z,100.00
2023-03-08T21:28:55.883Z,100.00
2023-03-08T21:31:23.469Z,100.00
2023-03-08T21:33:50.348Z,100.00
2023-03-08T21:36:16.863Z,100.00
2023-03-08T21:38:43.845Z,100.00
2023-03-08T21:41:20.186Z,100.00
2023-03-08T21:43:46.699Z,100.00
2023-03-08T21:46:13.139Z,100.00
2023-03-08T21:48:39.585Z,100.00
2023-03-08T21:51:06.785Z,100.00
2023-03-08T21:53:33.267Z,100.00
2023-03-08T21:55:59.799Z,100.00
2023-03-08T21:58:26.671Z,100.00
2023-03-08T22:00:54.230Z,100.00
2023-03-08T22:03:20.750Z,100.00
2023-03-08T22:05:47.118Z,100.00
2023-03-08T22:08:13.596Z,100.00
2023-03-08T22:10:40.041Z,100.00
2023-03-08T22:13:06.424Z,100.00
2023-03-08T22:15:32.846Z,100.00
2023-03-08T22:17:59.389Z,100.00
2023-03-08T22:20:27.608Z,100.00
2023-03-08T22:22:54.031Z,100.00
2023-03-08T22:25:20.468Z,100.00
2023-03-08T22:27:46.946Z,100.00
2023-03-08T22:30:13.569Z,100.00
2023-03-08T22:32:41.013Z,100.00
2023-03-08T22:35:08.403Z,100.00
2023-03-08T22:37:34.792Z,100.00
2023-03-08T22:40:02.556Z,100.00
2023-03-08T22:42:28.961Z,100.00
2023-03-08T22:44:55.356Z,100.00
2023-03-08T22:47:21.715Z,100.00
2023-03-08T22:49:49.484Z,100.00
2023-03-08T22:52:15.853Z,100.00
2023-03-08T22:54:42.232Z,100.00
2023-03-08T22:57:08.619Z,100.00
2023-03-08T22:59:35.262Z,100.00
2023-03-08T23:02:01.838Z,100.00
2023-03-08T23:04:28.505Z,100.00
2023-03-08T23:06:54.927Z,100.00
2023-03-08T23:09:22.194Z,100.00
2023-03-08T23:11:48.782Z,100.00
2023-03-08T23:14:15.580Z,100.00
2023-03-08T23:16:43.006Z,100.00
2023-03-08T23:19:13.761Z,100.00
2023-03-08T23:21:40.254Z,100.00
2023-03-08T23:24:06.927Z,100.00
2023-03-08T23:26:33.560Z,100.00
2023-03-08T23:29:01.027Z,100.00
2023-03-08T23:31:28.760Z,100.00
2023-03-08T23:33:55.352Z,100.00
2023-03-08T23:36:22.778Z,100.00
2023-03-08T23:38:49.528Z,100.00
2023-03-08T23:41:16.543Z,100.00
2023-03-08T23:43:43.367Z,100.00
2023-03-08T23:46:11.301Z,100.00
2023-03-08T23:48:37.727Z,100.00
2023-03-08T23:51:04.790Z,100.00
2023-03-08T23:53:31.186Z,100.00
2023-03-08T23:55:57.609Z,100.00
2023-03-08T23:58:24.040Z,100.00
